createdAt,value
2019-05-13T00:00:46.360Z,13.20
2019-05-13T00:03:15.189Z,13.20
2019-05-13T00:05:44.686Z,13.30
2019-05-13T00:08:14.077Z,13.20
2019-05-13T00:10:44.320Z,13.20
2019-05-13T00:13:14.656Z,13.20
2019-05-13T00:15:44.249Z,13.20
2019-05-13T00:18:14.361Z,13.20
2019-05-13T00:20:44.357Z,13.20
2019-05-13T00:23:14.279Z,13.10
2019-05-13T00:25:44.434Z,13.00
2019-05-13T00:28:14.490Z,13.00
2019-05-13T00:30:44.496Z,13.10
2019-05-13T00:33:14.210Z,13.10
2019-05-13T00:35:44.280Z,13.10
2019-05-13T00:38:14.139Z,13.10
2019-05-13T00:40:44.352Z,13.10
2019-05-13T00:43:14.272Z,13.10
2019-05-13T00:45:44.811Z,13.00
2019-05-13T00:48:14.356Z,13.00
2019-05-13T00:50:44.275Z,13.00
2019-05-13T00:53:13.485Z,13.00
2019-05-13T00:55:44.559Z,12.90
2019-05-13T00:58:14.021Z,12.90
2019-05-13T01:00:44.464Z,13.10
2019-05-13T01:03:14.288Z,13.10
2019-05-13T01:05:44.563Z,13.20
2019-05-13T01:08:19.300Z,13.20
2019-05-13T01:10:48.077Z,13.20
2019-05-13T01:13:16.898Z,13.30
2019-05-13T01:15:45.712Z,13.30
2019-05-13T01:18:14.531Z,13.40
2019-05-13T01:20:43.867Z,13.50
2019-05-13T01:23:14.240Z,13.50
2019-05-13T01:25:44.456Z,13.50
2019-05-13T01:28:13.628Z,13.50
2019-05-13T01:30:43.901Z,13.50
2019-05-13T01:33:14.447Z,13.60
2019-05-13T01:35:44.568Z,13.50
2019-05-13T01:38:13.686Z,13.40
2019-05-13T01:40:44.046Z,13.40
2019-05-13T01:43:14.382Z,13.40
2019-05-13T01:45:44.168Z,13.40
2019-05-13T01:48:14.198Z,13.50
2019-05-13T01:50:44.530Z,13.50
2019-05-13T01:53:14.538Z,13.50
2019-05-13T01:55:44.232Z,13.40
2019-05-13T01:58:14.630Z,13.30
2019-05-13T02:00:44.477Z,13.20
2019-05-13T02:03:14.515Z,13.20
2019-05-13T02:05:44.327Z,13.20
2019-05-13T02:08:14.309Z,13.20
2019-05-13T02:10:50.784Z,13.20
2019-05-13T02:13:19.560Z,13.20
2019-05-13T02:15:48.952Z,13.20
2019-05-13T02:18:20.440Z,13.10
2019-05-13T02:20:49.276Z,13.10
2019-05-13T02:23:18.159Z,13.20
2019-05-13T02:25:46.984Z,13.20
2019-05-13T02:28:15.701Z,13.20
2019-05-13T02:30:45.555Z,13.10
2019-05-13T02:33:14.639Z,13.10
2019-05-13T02:35:43.692Z,13.00
2019-05-13T02:38:22.816Z,13.10
2019-05-13T02:40:43.467Z,13.10
2019-05-13T02:43:13.640Z,13.20
2019-05-13T02:45:43.323Z,13.10
2019-05-13T02:48:12.759Z,13.20
2019-05-13T02:50:44.099Z,13.10
2019-05-13T02:53:13.613Z,13.10
2019-05-13T02:55:43.641Z,13.00
2019-05-13T02:58:12.820Z,13.00
2019-05-13T03:00:44.167Z,12.90
2019-05-13T03:03:12.934Z,12.90
2019-05-13T03:05:42.862Z,12.90
2019-05-13T03:08:12.774Z,12.80
2019-05-13T03:10:43.400Z,12.80
2019-05-13T03:13:12.839Z,12.70
2019-05-13T03:15:43.322Z,12.70
2019-05-13T03:18:13.363Z,12.70
2019-05-13T03:20:43.082Z,12.70
2019-05-13T03:23:13.416Z,12.60
2019-05-13T03:25:43.078Z,12.60
2019-05-13T03:28:13.441Z,12.60
2019-05-13T03:30:45.832Z,12.60
2019-05-13T03:33:18.558Z,12.60
2019-05-13T03:35:45.310Z,12.70
2019-05-13T03:38:13.823Z,12.70
2019-05-13T03:40:42.804Z,12.70
2019-05-13T03:43:13.306Z,12.70
2019-05-13T03:45:43.404Z,12.80
2019-05-13T03:48:13.152Z,12.90
2019-05-13T03:50:43.429Z,12.90
2019-05-13T03:53:13.224Z,13.00
2019-05-13T03:55:43.384Z,13.00
2019-05-13T03:58:13.260Z,13.00
2019-05-13T04:00:42.774Z,12.90
2019-05-13T04:03:13.605Z,12.90
2019-05-13T04:05:43.737Z,12.90
2019-05-13T04:08:13.367Z,12.90
2019-05-13T04:10:42.445Z,13.00
2019-05-13T04:13:12.397Z,13.00
2019-05-13T04:15:42.848Z,13.10
2019-05-13T04:18:12.624Z,13.20
2019-05-13T04:20:42.542Z,13.20
2019-05-13T04:23:12.888Z,13.30
2019-05-13T04:25:44.726Z,13.30
2019-05-13T04:28:13.393Z,13.30
2019-05-13T04:30:43.628Z,13.40
2019-05-13T04:33:14.180Z,13.40
2019-05-13T04:35:43.192Z,13.30
2019-05-13T04:38:13.136Z,13.30
2019-05-13T04:40:42.627Z,13.30
2019-05-13T04:43:13.040Z,13.30
2019-05-13T04:45:43.052Z,13.30
2019-05-13T04:48:12.888Z,13.30
2019-05-13T04:50:43.208Z,13.30
2019-05-13T04:53:13.687Z,13.30
2019-05-13T04:55:43.401Z,13.30
2019-05-13T04:58:13.142Z,13.30
2019-05-13T05:01:07.961Z,13.30
2019-05-13T05:03:53.459Z,13.40
2019-05-13T05:06:45.953Z,13.40
2019-05-13T05:09:45.241Z,13.50
2019-05-13T05:12:34.641Z,13.60
2019-05-13T05:15:18.566Z,13.70
2019-05-13T05:18:06.949Z,13.90
2019-05-13T05:20:38.740Z,14.10
2019-05-13T05:23:22.597Z,14.20
2019-05-13T05:26:15.154Z,14.40
2019-05-13T05:29:12.737Z,14.60
2019-05-13T05:31:56.329Z,14.80
2019-05-13T05:34:36.679Z,14.90
2019-05-13T05:37:11.861Z,15.00
2019-05-13T05:39:41.986Z,15.10
2019-05-13T05:42:13.760Z,15.10
2019-05-13T05:44:44.059Z,15.20
2019-05-13T05:47:16.242Z,15.20
2019-05-13T05:49:47.660Z,15.30
2019-05-13T05:52:21.280Z,15.40
2019-05-13T05:54:52.753Z,15.40
2019-05-13T05:57:23.248Z,15.40
2019-05-13T05:59:53.840Z,15.50
2019-05-13T06:02:25.653Z,15.50
2019-05-13T06:04:56.135Z,15.60
2019-05-13T06:07:25.261Z,15.60
2019-05-13T06:09:54.039Z,15.60
2019-05-13T06:12:23.365Z,15.60
2019-05-13T06:14:52.590Z,15.70
2019-05-13T06:17:22.684Z,15.70
2019-05-13T06:19:51.504Z,15.80
2019-05-13T06:22:21.908Z,15.80
2019-05-13T06:24:52.202Z,15.80
2019-05-13T06:27:21.759Z,15.90
2019-05-13T06:29:52.845Z,16.00
2019-05-13T06:32:25.334Z,16.00
2019-05-13T06:34:52.440Z,16.00
2019-05-13T06:37:22.839Z,16.00
2019-05-13T06:39:51.659Z,16.00
2019-05-13T06:42:22.252Z,16.00
2019-05-13T06:44:51.511Z,16.10
2019-05-13T06:47:21.929Z,16.10
2019-05-13T06:49:51.608Z,16.20
2019-05-13T06:52:21.251Z,16.30
2019-05-13T06:54:52.000Z,16.40
2019-05-13T06:57:22.040Z,16.50
2019-05-13T06:59:52.411Z,16.50
2019-05-13T07:02:21.748Z,16.40
2019-05-13T07:04:51.643Z,16.40
2019-05-13T07:07:21.912Z,16.50
2019-05-13T07:09:51.771Z,16.60
2019-05-13T07:12:21.957Z,16.60
2019-05-13T07:14:51.777Z,16.60
2019-05-13T07:17:22.252Z,16.70
2019-05-13T07:19:51.794Z,16.80
2019-05-13T07:22:22.950Z,16.70
2019-05-13T07:24:51.918Z,16.80
2019-05-13T07:27:22.949Z,16.80
2019-05-13T07:29:53.653Z,16.80
2019-05-13T07:32:22.308Z,16.90
2019-05-13T07:34:53.166Z,17.00
2019-05-13T07:37:22.075Z,17.00
2019-05-13T07:39:52.993Z,17.20
2019-05-13T07:42:22.327Z,17.30
2019-05-13T07:44:52.736Z,17.30
2019-05-13T07:47:22.355Z,17.30
2019-05-13T07:49:51.810Z,17.30
2019-05-13T07:52:22.811Z,17.30
2019-05-13T07:54:52.240Z,17.30
2019-05-13T07:57:21.544Z,17.40
2019-05-13T07:59:52.391Z,17.50
2019-05-13T08:02:21.737Z,17.60
2019-05-13T08:04:53.044Z,17.80
2019-05-13T08:07:22.641Z,17.90
2019-05-13T08:09:55.509Z,17.90
2019-05-13T08:12:21.991Z,17.90
2019-05-13T08:14:52.190Z,17.90
2019-05-13T08:17:27.192Z,18.00
2019-05-13T08:19:59.043Z,18.10
2019-05-13T08:22:27.821Z,18.10
2019-05-13T08:25:03.016Z,18.30
2019-05-13T08:27:36.458Z,18.40
2019-05-13T08:30:11.915Z,18.60
2019-05-13T08:32:43.011Z,18.80
2019-05-13T08:35:16.012Z,18.80
2019-05-13T08:37:51.859Z,18.90
2019-05-13T08:40:24.108Z,18.90
2019-05-13T08:42:55.565Z,18.90
2019-05-13T08:45:27.095Z,19.00
2019-05-13T08:48:03.927Z,19.00
2019-05-13T08:50:34.928Z,19.00
2019-05-13T08:53:08.633Z,18.90
2019-05-13T08:55:43.207Z,18.80
2019-05-13T08:58:14.563Z,18.80
2019-05-13T09:00:52.985Z,18.80
2019-05-13T09:03:24.285Z,18.80
2019-05-13T09:06:02.532Z,18.80
2019-05-13T09:08:31.981Z,18.90
2019-05-13T09:11:02.986Z,18.90
2019-05-13T09:13:36.008Z,18.80
2019-05-13T09:16:05.451Z,18.80
2019-05-13T09:18:35.702Z,18.80
2019-05-13T09:21:08.820Z,18.70
2019-05-13T09:23:42.109Z,18.70
2019-05-13T09:26:14.665Z,18.70
2019-05-13T09:28:47.957Z,18.70
2019-05-13T09:31:27.160Z,18.70
2019-05-13T09:34:04.508Z,18.80
2019-05-13T09:36:34.427Z,18.90
2019-05-13T09:39:07.902Z,19.10
2019-05-13T09:41:44.722Z,19.30
2019-05-13T09:44:16.825Z,19.50
2019-05-13T09:46:51.703Z,19.70
2019-05-13T09:49:23.945Z,20.00
2019-05-13T09:51:55.573Z,20.20
2019-05-13T09:54:26.538Z,20.20
2019-05-13T09:57:01.862Z,20.20
2019-05-13T09:59:33.849Z,20.20
2019-05-13T10:02:15.256Z,19.90
2019-05-13T10:04:52.275Z,19.70
2019-05-13T10:07:24.040Z,19.60
2019-05-13T10:09:56.941Z,19.70
2019-05-13T10:12:32.095Z,19.70
2019-05-13T10:15:07.152Z,19.80
2019-05-13T10:17:42.695Z,19.80
2019-05-13T10:20:16.001Z,20.00
2019-05-13T10:22:48.760Z,19.90
2019-05-13T10:25:18.987Z,19.90
2019-05-13T10:27:47.700Z,19.80
2019-05-13T10:30:21.803Z,19.80
2019-05-13T10:32:52.705Z,19.70
2019-05-13T10:35:21.086Z,19.70
2019-05-13T10:37:52.305Z,19.80
2019-05-13T10:40:22.414Z,19.80
2019-05-13T10:42:52.389Z,19.90
2019-05-13T10:45:22.327Z,19.90
2019-05-13T10:47:51.896Z,19.90
2019-05-13T10:50:21.603Z,19.80
2019-05-13T10:52:52.265Z,19.80
2019-05-13T10:55:21.551Z,19.80
2019-05-13T10:57:51.403Z,19.90
2019-05-13T11:00:23.197Z,20.10
2019-05-13T11:02:51.899Z,20.30
2019-05-13T11:05:22.678Z,20.50
2019-05-13T11:07:51.740Z,20.60
2019-05-13T11:10:23.583Z,20.60
2019-05-13T11:12:52.258Z,20.80
2019-05-13T11:15:20.987Z,20.80
2019-05-13T11:17:51.888Z,20.90
2019-05-13T11:20:22.071Z,21.40
2019-05-13T11:22:52.157Z,21.70
2019-05-13T11:25:21.870Z,21.80
2019-05-13T11:27:52.456Z,21.60
2019-05-13T11:30:21.957Z,21.50
2019-05-13T11:32:51.647Z,21.80
2019-05-13T11:35:22.936Z,22.20
2019-05-13T11:37:52.218Z,22.50
2019-05-13T11:40:22.501Z,22.40
2019-05-13T11:42:52.641Z,22.60
2019-05-13T11:45:22.454Z,22.50
2019-05-13T11:47:52.237Z,22.40
2019-05-13T11:50:22.335Z,22.20
2019-05-13T11:52:52.438Z,22.50
2019-05-13T11:55:22.991Z,22.10
2019-05-13T11:57:53.122Z,21.90
2019-05-13T12:00:45.987Z,21.70
2019-05-13T12:03:15.056Z,21.50
2019-05-13T12:05:43.979Z,21.40
2019-05-13T12:08:12.819Z,21.20
2019-05-13T12:10:43.912Z,21.10
2019-05-13T12:13:12.654Z,20.90
2019-05-13T12:15:46.793Z,20.80
2019-05-13T12:18:12.795Z,20.80
2019-05-13T12:20:42.762Z,21.50
2019-05-13T12:23:13.007Z,22.50
2019-05-13T12:25:43.737Z,22.90
2019-05-13T12:28:12.353Z,22.80
2019-05-13T12:30:41.766Z,22.60
2019-05-13T12:33:13.474Z,22.40
2019-05-13T12:35:40.908Z,22.30
2019-05-13T12:38:12.979Z,22.70
2019-05-13T12:40:42.924Z,23.50
2019-05-13T12:43:13.282Z,23.60
2019-05-13T12:45:43.567Z,23.20
2019-05-13T12:48:17.386Z,22.80
2019-05-13T12:50:46.236Z,22.50
2019-05-13T12:53:16.362Z,22.00
2019-05-13T12:55:52.717Z,21.70
2019-05-13T12:58:17.217Z,21.60
2019-05-13T13:00:47.259Z,22.40
2019-05-13T13:03:16.015Z,24.00
2019-05-13T13:05:44.697Z,25.00
2019-05-13T13:08:24.428Z,25.70
2019-05-13T13:10:44.085Z,26.00
2019-05-13T13:13:12.780Z,25.80
2019-05-13T13:15:46.825Z,26.30
2019-05-13T13:18:14.273Z,26.80
2019-05-13T13:20:42.529Z,27.60
2019-05-13T13:23:12.878Z,28.10
2019-05-13T13:25:43.482Z,27.70
2019-05-13T13:28:15.323Z,26.80
2019-05-13T13:30:44.142Z,25.40
2019-05-13T13:35:45.201Z,23.20
2019-05-13T13:38:13.455Z,22.50
2019-05-13T13:40:45.703Z,21.90
2019-05-13T13:43:13.447Z,21.50
2019-05-13T13:46:06.764Z,21.10
2019-05-13T13:48:13.576Z,20.80
2019-05-13T13:50:44.167Z,20.90
2019-05-13T13:53:16.037Z,21.20
2019-05-13T13:55:45.089Z,21.40
2019-05-13T13:58:14.499Z,21.60
2019-05-13T14:00:56.469Z,21.70
2019-05-13T14:03:15.203Z,22.00
2019-05-13T14:05:44.692Z,22.20
2019-05-13T14:07:09.024Z,24.10
2019-05-13T14:08:13.495Z,22.50
2019-05-13T14:10:42.731Z,22.40
2019-05-13T14:13:12.532Z,22.40
2019-05-13T14:15:41.827Z,22.30
2019-05-13T14:18:11.450Z,22.20
2019-05-13T14:20:42.795Z,22.10
2019-05-13T14:23:12.649Z,22.10
2019-05-13T14:25:42.035Z,22.10
2019-05-13T14:28:10.944Z,22.40
2019-05-13T14:30:42.022Z,22.80
2019-05-13T14:33:10.074Z,22.90
2019-05-13T14:35:38.724Z,23.10
2019-05-13T14:38:07.431Z,23.40
2019-05-13T14:40:36.042Z,22.90
2019-05-13T14:43:04.715Z,22.60
2019-05-13T14:45:33.398Z,22.40
2019-05-13T14:48:02.091Z,22.30
2019-05-13T14:50:31.879Z,22.00
2019-05-13T14:53:01.597Z,21.70
2019-05-13T14:55:32.039Z,21.50
2019-05-13T14:58:01.632Z,21.20
2019-05-13T15:00:32.699Z,20.90
2019-05-13T15:03:03.075Z,20.90
2019-05-13T15:05:31.474Z,20.80
2019-05-13T15:08:00.266Z,20.80
2019-05-13T15:10:31.478Z,20.80
2019-05-13T15:13:03.004Z,20.90
2019-05-13T15:15:31.674Z,20.80
2019-05-13T15:18:01.458Z,20.60
2019-05-13T15:20:32.910Z,20.50
2019-05-13T15:23:00.716Z,20.40
2019-05-13T15:25:31.401Z,20.10
2019-05-13T15:28:02.945Z,20.10
2019-05-13T15:30:31.899Z,19.90
2019-05-13T15:33:01.747Z,20.00
2019-05-13T15:35:32.133Z,19.90
2019-05-13T15:38:01.281Z,19.90
2019-05-13T15:40:31.249Z,19.90
2019-05-13T15:43:02.319Z,19.80
2019-05-13T15:45:31.921Z,19.80
2019-05-13T15:48:02.263Z,19.70
2019-05-13T15:50:31.866Z,19.80
2019-05-13T15:53:02.843Z,19.80
2019-05-13T15:55:31.139Z,19.60
2019-05-13T15:58:01.822Z,19.50
2019-05-13T16:00:36.652Z,19.30
2019-05-13T16:03:06.911Z,19.20
2019-05-13T16:05:35.617Z,19.20
2019-05-13T16:08:04.294Z,19.10
2019-05-13T16:10:32.942Z,19.00
2019-05-13T16:13:02.204Z,18.80
2019-05-13T16:15:32.111Z,18.70
2019-05-13T16:18:02.506Z,18.60
2019-05-13T16:20:32.183Z,18.50
2019-05-13T16:23:02.418Z,18.40
2019-05-13T16:25:31.899Z,18.40
2019-05-13T16:28:01.354Z,18.30
2019-05-13T16:30:32.151Z,18.30
2019-05-13T16:33:02.797Z,18.10
2019-05-13T16:35:32.513Z,18.00
2019-05-13T16:38:01.807Z,17.90
2019-05-13T16:40:36.169Z,17.80
2019-05-13T16:43:01.430Z,17.70
2019-05-13T16:45:31.563Z,17.60
2019-05-13T16:48:01.508Z,17.50
2019-05-13T16:50:31.413Z,17.40
2019-05-13T16:53:01.846Z,17.30
2019-05-13T16:55:32.640Z,17.20
2019-05-13T16:58:01.953Z,17.20
2019-05-13T17:00:31.756Z,17.10
2019-05-13T17:03:02.333Z,16.90
2019-05-13T17:05:32.621Z,16.90
2019-05-13T17:08:02.139Z,16.90
2019-05-13T17:10:31.533Z,16.80
2019-05-13T17:13:02.867Z,16.80
2019-05-13T17:15:31.304Z,16.70
2019-05-13T17:18:11.079Z,16.60
2019-05-13T17:20:32.181Z,16.50
2019-05-13T17:23:01.817Z,16.50
2019-05-13T17:25:30.627Z,16.30
2019-05-13T17:27:59.282Z,16.20
2019-05-13T17:30:27.968Z,16.00
2019-05-13T17:32:56.598Z,15.90
2019-05-13T17:35:25.267Z,15.80
2019-05-13T17:37:54.727Z,15.80
2019-05-13T17:40:23.332Z,15.80
2019-05-13T17:42:51.922Z,15.70
2019-05-13T17:45:22.005Z,15.60
2019-05-13T17:47:52.067Z,15.50
2019-05-13T17:50:22.268Z,15.50
2019-05-13T17:52:51.452Z,15.40
2019-05-13T17:55:22.312Z,15.30
2019-05-13T17:57:50.680Z,15.30
2019-05-13T18:00:21.428Z,15.30
2019-05-13T18:02:51.395Z,15.30
2019-05-13T18:05:22.352Z,15.30
2019-05-13T18:07:51.301Z,15.20
2019-05-13T18:10:22.393Z,15.20
2019-05-13T18:12:51.120Z,15.20
2019-05-13T18:15:21.994Z,15.20
2019-05-13T18:17:52.155Z,15.20
2019-05-13T18:20:21.774Z,15.20
2019-05-13T18:22:52.388Z,15.20
2019-05-13T18:25:22.329Z,15.10
2019-05-13T18:27:52.124Z,15.10
2019-05-13T18:30:21.239Z,15.10
2019-05-13T18:32:51.821Z,15.10
2019-05-13T18:35:21.963Z,15.00
2019-05-13T18:37:50.884Z,15.00
2019-05-13T18:40:21.937Z,15.00
2019-05-13T18:42:51.423Z,15.00
2019-05-13T18:45:22.013Z,15.00
2019-05-13T18:47:51.373Z,15.00
2019-05-13T18:50:21.936Z,15.10
2019-05-13T18:52:52.441Z,15.10
2019-05-13T18:55:20.989Z,15.10
2019-05-13T18:57:51.692Z,15.10
2019-05-13T19:00:21.710Z,15.10
2019-05-13T19:02:50.489Z,15.10
2019-05-13T19:05:21.074Z,15.10
2019-05-13T19:07:51.286Z,15.10
2019-05-13T19:10:21.879Z,15.10
2019-05-13T19:12:50.226Z,15.00
2019-05-13T19:15:21.146Z,15.00
2019-05-13T19:17:51.862Z,15.00
2019-05-13T19:20:21.825Z,15.00
2019-05-13T19:22:51.833Z,14.90
2019-05-13T19:25:20.657Z,14.90
2019-05-13T19:27:51.554Z,14.90
2019-05-13T19:30:21.342Z,14.90
2019-05-13T19:32:52.075Z,14.80
2019-05-13T19:35:21.836Z,14.80
2019-05-13T19:37:51.570Z,14.80
2019-05-13T19:40:22.053Z,14.80
2019-05-13T19:42:51.092Z,14.80
2019-05-13T19:45:21.794Z,14.80
2019-05-13T19:47:51.831Z,14.80
2019-05-13T19:50:22.413Z,14.80
2019-05-13T19:52:51.866Z,14.70
2019-05-13T19:55:20.735Z,14.70
2019-05-13T19:57:51.717Z,14.60
2019-05-13T20:00:21.171Z,14.60
2019-05-13T20:02:50.003Z,14.60
2019-05-13T20:05:20.439Z,14.50
2019-05-13T20:07:49.139Z,14.50
2019-05-13T20:10:17.837Z,14.50
2019-05-13T20:12:46.571Z,14.40
2019-05-13T20:15:15.623Z,14.40
2019-05-13T20:17:44.272Z,14.30
2019-05-13T20:20:13.054Z,14.30
2019-05-13T20:22:42.289Z,14.30
2019-05-13T20:25:13.043Z,14.20
2019-05-13T20:27:42.122Z,14.20
2019-05-13T20:30:11.469Z,14.20
2019-05-13T20:32:40.272Z,14.10
2019-05-13T20:35:11.340Z,14.10
2019-05-13T20:37:39.386Z,14.00
2019-05-13T20:40:08.124Z,14.00
2019-05-13T20:42:36.886Z,13.90
2019-05-13T20:45:06.252Z,13.90
2019-05-13T20:47:34.988Z,13.90
2019-05-13T20:50:05.564Z,13.80
2019-05-13T20:52:34.292Z,13.80
2019-05-13T20:55:03.044Z,13.80
2019-05-13T20:57:32.352Z,13.70
2019-05-13T21:00:02.366Z,13.70
2019-05-13T21:02:31.989Z,13.70
2019-05-13T21:05:01.643Z,13.70
2019-05-13T21:07:32.130Z,13.60
2019-05-13T21:10:01.406Z,13.70
2019-05-13T21:12:31.368Z,13.70
2019-05-13T21:15:01.498Z,13.60
2019-05-13T21:17:30.434Z,13.60
2019-05-13T21:20:08.534Z,13.60
2019-05-13T21:22:31.634Z,13.60
2019-05-13T21:25:02.008Z,13.60
2019-05-13T21:27:31.532Z,13.50
2019-05-13T21:30:01.192Z,13.50
2019-05-13T21:32:30.081Z,13.50
2019-05-13T21:34:58.677Z,13.40
2019-05-13T21:37:27.407Z,13.40
2019-05-13T21:39:56.069Z,13.50
2019-05-13T21:42:24.776Z,13.40
2019-05-13T21:44:53.378Z,13.30
2019-05-13T21:47:22.161Z,13.20
2019-05-13T21:49:51.539Z,13.00
2019-05-13T21:52:23.629Z,12.90
2019-05-13T21:54:51.601Z,12.80
2019-05-13T21:57:20.475Z,12.80
2019-05-13T21:59:51.433Z,12.80
2019-05-13T22:02:21.229Z,12.80
2019-05-13T22:04:51.689Z,12.80
2019-05-13T22:07:22.200Z,12.70
2019-05-13T22:09:51.321Z,12.80
2019-05-13T22:12:21.728Z,12.80
2019-05-13T22:14:51.744Z,12.80
2019-05-13T22:17:20.614Z,12.80
2019-05-13T22:19:51.130Z,12.70
2019-05-13T22:22:21.910Z,12.70
2019-05-13T22:24:51.221Z,12.80
2019-05-13T22:27:21.890Z,12.70
2019-05-13T22:29:51.660Z,12.70
2019-05-13T22:32:22.034Z,12.80
2019-05-13T22:34:51.186Z,12.70
2019-05-13T22:37:20.068Z,12.70
2019-05-13T22:39:48.667Z,12.70
2019-05-13T22:42:17.306Z,12.70
2019-05-13T22:44:45.990Z,12.70
2019-05-13T22:47:14.690Z,12.50
2019-05-13T22:49:43.356Z,12.60
2019-05-13T22:52:12.121Z,12.60
2019-05-13T22:54:41.326Z,12.60
2019-05-13T22:57:12.005Z,12.50
2019-05-13T22:59:41.583Z,12.50
2019-05-13T23:02:10.596Z,12.30
2019-05-13T23:04:41.691Z,12.30
2019-05-13T23:07:11.606Z,12.30
2019-05-13T23:09:41.594Z,12.20
2019-05-13T23:12:12.332Z,12.20
2019-05-13T23:14:41.439Z,12.10
2019-05-13T23:17:12.300Z,12.10
2019-05-13T23:19:41.509Z,12.00
2019-05-13T23:22:12.056Z,11.80
2019-05-13T23:24:41.732Z,11.70
2019-05-13T23:27:11.118Z,11.60
2019-05-13T23:29:41.246Z,11.60
2019-05-13T23:32:12.047Z,11.60
2019-05-13T23:34:42.294Z,11.50
2019-05-13T23:37:11.332Z,11.50
2019-05-13T23:39:41.643Z,11.50
2019-05-13T23:42:12.129Z,11.50
2019-05-13T23:44:41.537Z,11.40
2019-05-13T23:47:11.488Z,11.40
2019-05-13T23:49:42.224Z,11.40
2019-05-13T23:52:11.634Z,11.40
2019-05-13T23:54:42.435Z,11.40
2019-05-13T23:57:11.910Z,11.40
2019-05-13T23:59:42.055Z,11.30
